aviador You're here:

KPCW Decoded Metar

in
Report Time2018-01-19 10:55:00
UTC Time2018-01-19 11:20:32
Flight Rules vfr VFR
Wind220° at 12 kt
W.Decomp.*RWY 18: 9.2 kt HW 7.7 kt RCW
RWY 27: 7.7 kt HW 9.2 kt LCW
W.Rank220° ranks 1
Current wind is above 220° avg. (8.4)
Visibility9999 m
Phenomena:N/A
Clouds:N/A
Expected CloudBase > 2,000 ft AGL from Temp-Dew spread
CeilingNone
Temp-5°C
Dew Point-10°C (68% RH)
AAT-12.4°C
QNH1016 hPa
Raw Report
KPCW 191055Z AUTO 22012KT 10SM CLR M05/M10 A3001 RMK AO2=

Extra information for KPCW:More info

Social comments